createdAt,value
2018-03-16T00:01:05.983Z,3.93
2018-03-16T00:03:33.566Z,3.95
2018-03-16T00:06:01.111Z,4.03
2018-03-16T00:08:28.654Z,4.07
2018-03-16T00:10:56.224Z,4.07
2018-03-16T00:13:23.783Z,4.07
2018-03-16T00:15:51.334Z,4.07
2018-03-16T00:18:19.209Z,4.09
2018-03-16T00:20:46.751Z,4.11
2018-03-16T00:23:14.291Z,4.12
2018-03-16T00:25:42.167Z,4.15
2018-03-16T00:28:09.734Z,4.14
2018-03-16T00:30:37.289Z,4.11
2018-03-16T00:33:04.871Z,4.10
2018-03-16T00:35:32.456Z,4.07
2018-03-16T00:37:59.999Z,4.09
2018-03-16T00:40:27.597Z,4.10
2018-03-16T00:42:55.160Z,4.14
2018-03-16T00:45:22.701Z,4.18
2018-03-16T00:47:50.582Z,4.20
2018-03-16T00:50:18.134Z,4.20
2018-03-16T00:52:45.715Z,4.24
2018-03-16T00:55:13.461Z,4.27
2018-03-16T00:57:41.069Z,4.27
2018-03-16T01:00:08.608Z,4.25
2018-03-16T01:02:36.172Z,4.22
2018-03-16T01:05:03.764Z,4.22
2018-03-16T01:07:31.320Z,4.22
2018-03-16T01:09:58.893Z,4.23
2018-03-16T01:12:26.465Z,4.23
2018-03-16T01:14:54.013Z,4.24
2018-03-16T01:17:21.609Z,4.19
2018-03-16T01:19:49.148Z,4.17
2018-03-16T01:22:16.689Z,4.21
2018-03-16T01:24:44.262Z,4.21
2018-03-16T01:27:11.810Z,4.20
2018-03-16T01:29:39.366Z,4.23
2018-03-16T01:32:06.960Z,4.28
2018-03-16T01:34:34.514Z,4.44
2018-03-16T01:37:02.059Z,4.40
2018-03-16T01:39:29.736Z,4.46
2018-03-16T01:41:57.282Z,4.44
2018-03-16T01:44:24.840Z,4.40
2018-03-16T01:46:52.426Z,4.39
2018-03-16T01:49:19.966Z,4.36
2018-03-16T01:51:47.522Z,4.34
2018-03-16T01:54:15.242Z,4.36
2018-03-16T01:56:42.788Z,4.36
2018-03-16T01:59:10.331Z,4.34
2018-03-16T02:01:37.907Z,4.37
2018-03-16T02:04:05.455Z,4.45
2018-03-16T02:06:33.006Z,4.48
2018-03-16T02:09:00.884Z,4.46
2018-03-16T02:11:28.450Z,4.48
2018-03-16T02:13:56.885Z,4.47
2018-03-16T02:16:24.457Z,4.52
2018-03-16T02:18:52.014Z,4.58
2018-03-16T02:21:19.573Z,4.53
2018-03-16T02:23:47.290Z,4.55
2018-03-16T02:26:14.838Z,4.58
2018-03-16T02:28:42.400Z,4.61
2018-03-16T02:31:09.991Z,4.56
2018-03-16T02:33:37.544Z,4.54
2018-03-16T02:36:05.097Z,4.52
2018-03-16T02:38:32.779Z,4.54
2018-03-16T02:41:00.316Z,4.53
2018-03-16T02:43:27.871Z,4.60
2018-03-16T02:45:55.463Z,4.60
2018-03-16T02:48:23.021Z,4.61
2018-03-16T02:50:50.567Z,4.55
2018-03-16T02:53:19.203Z,4.51
2018-03-16T02:55:46.758Z,4.48
2018-03-16T02:58:14.306Z,4.48
2018-03-16T03:00:42.029Z,4.49
2018-03-16T03:03:09.579Z,4.49
2018-03-16T03:05:37.127Z,4.48
2018-03-16T03:08:04.674Z,4.49
2018-03-16T03:10:32.229Z,4.49
2018-03-16T03:13:00.129Z,4.50
2018-03-16T03:15:27.671Z,4.56
2018-03-16T03:17:55.221Z,4.52
2018-03-16T03:20:22.801Z,4.51
2018-03-16T03:22:50.346Z,4.54
2018-03-16T03:25:17.895Z,4.58
2018-03-16T03:27:45.574Z,4.57
2018-03-16T03:30:13.124Z,4.60
2018-03-16T03:32:40.682Z,4.61
2018-03-16T03:35:08.271Z,4.58
2018-03-16T03:37:35.859Z,4.52
2018-03-16T03:40:03.435Z,4.54
2018-03-16T03:42:31.024Z,4.61
2018-03-16T03:44:58.599Z,4.63
2018-03-16T03:47:26.149Z,4.67
2018-03-16T03:49:53.742Z,4.72
2018-03-16T03:52:21.308Z,4.73
2018-03-16T03:54:48.858Z,4.73
2018-03-16T03:57:16.745Z,4.75
2018-03-16T03:59:44.300Z,4.76
2018-03-16T04:02:11.860Z,4.78
2018-03-16T04:04:39.433Z,4.80
2018-03-16T04:07:06.987Z,4.84
2018-03-16T04:09:34.551Z,4.88
2018-03-16T04:12:02.161Z,4.90
2018-03-16T04:14:29.716Z,4.95
2018-03-16T04:16:57.286Z,5.01
2018-03-16T04:19:24.884Z,5.06
2018-03-16T04:21:52.424Z,5.12
2018-03-16T04:24:19.974Z,5.11
2018-03-16T04:26:47.572Z,5.19
2018-03-16T04:29:15.112Z,5.21
2018-03-16T04:31:42.671Z,5.24
2018-03-16T04:34:10.386Z,5.25
2018-03-16T04:36:37.943Z,5.29
2018-03-16T04:39:05.518Z,5.36
2018-03-16T04:41:33.105Z,5.36
2018-03-16T04:44:00.654Z,5.43
2018-03-16T04:46:28.193Z,5.42
2018-03-16T04:48:55.786Z,5.49
2018-03-16T04:51:23.316Z,5.48
2018-03-16T04:53:50.873Z,5.54
2018-03-16T04:56:18.602Z,5.54
2018-03-16T04:58:46.149Z,5.55
2018-03-16T05:01:13.776Z,5.63
2018-03-16T05:03:41.306Z,5.70
2018-03-16T05:06:08.864Z,5.75
2018-03-16T05:08:36.407Z,5.80
2018-03-16T05:11:03.986Z,5.84
2018-03-16T05:13:31.532Z,5.87
2018-03-16T05:15:59.101Z,5.90
2018-03-16T05:18:27.007Z,5.92
2018-03-16T05:20:54.587Z,5.95
2018-03-16T05:23:22.149Z,5.99
2018-03-16T05:25:49.733Z,6.01
2018-03-16T05:28:17.307Z,6.07
2018-03-16T05:30:44.865Z,6.14
2018-03-16T05:33:12.456Z,6.20
2018-03-16T05:35:40.004Z,6.28
2018-03-16T05:38:07.551Z,6.36
2018-03-16T05:40:35.131Z,6.42
2018-03-16T05:43:02.691Z,6.46
2018-03-16T05:45:30.240Z,6.53
2018-03-16T05:47:57.813Z,6.53
2018-03-16T05:50:25.355Z,6.56
2018-03-16T05:52:52.909Z,6.59
2018-03-16T05:55:20.489Z,6.63
2018-03-16T05:57:48.035Z,6.70
2018-03-16T06:00:15.584Z,6.77
2018-03-16T06:02:43.315Z,6.85
2018-03-16T06:05:10.866Z,6.93
2018-03-16T06:07:38.438Z,7.00
2018-03-16T06:10:06.163Z,7.09
2018-03-16T06:12:33.711Z,7.21
2018-03-16T06:15:01.262Z,7.34
2018-03-16T06:17:28.842Z,7.45
2018-03-16T06:19:56.406Z,7.54
2018-03-16T06:22:23.950Z,7.46
2018-03-16T06:24:51.534Z,7.59
2018-03-16T06:27:19.088Z,7.58
2018-03-16T06:29:46.650Z,7.65
2018-03-16T06:32:14.358Z,7.71
2018-03-16T06:34:41.919Z,7.82
2018-03-16T06:37:09.471Z,7.92
2018-03-16T06:39:37.194Z,8.01
2018-03-16T06:42:04.759Z,8.06
2018-03-16T06:44:32.455Z,8.03
2018-03-16T06:47:00.324Z,7.93
2018-03-16T06:49:27.885Z,7.99
2018-03-16T06:51:55.514Z,8.02
2018-03-16T06:54:23.229Z,8.06
2018-03-16T06:56:50.782Z,8.13
2018-03-16T06:59:18.344Z,8.19
2018-03-16T07:01:46.031Z,8.25
2018-03-16T07:04:13.583Z,8.35
2018-03-16T07:06:41.126Z,8.37
2018-03-16T07:09:08.815Z,8.45
2018-03-16T07:11:36.367Z,8.42
2018-03-16T07:14:03.917Z,8.48
2018-03-16T07:16:31.514Z,8.46
2018-03-16T07:18:59.074Z,8.45
2018-03-16T07:21:26.620Z,8.43
2018-03-16T07:23:54.222Z,8.47
2018-03-16T07:26:21.767Z,8.54
2018-03-16T07:28:49.315Z,8.62
2018-03-16T07:31:17.051Z,8.65
2018-03-16T07:33:44.604Z,8.59
2018-03-16T07:36:12.154Z,8.58
2018-03-16T07:38:39.749Z,8.69
2018-03-16T07:41:07.301Z,8.72
2018-03-16T07:43:34.876Z,8.72
2018-03-16T07:46:03.364Z,8.87
2018-03-16T07:48:30.916Z,9.00
2018-03-16T07:50:58.462Z,9.04
2018-03-16T07:53:26.344Z,9.07
2018-03-16T07:55:53.882Z,9.11
2018-03-16T07:58:21.424Z,9.22
2018-03-16T08:00:49.002Z,9.16
2018-03-16T08:03:16.548Z,9.08
2018-03-16T08:05:44.103Z,9.13
2018-03-16T08:08:11.648Z,9.19
2018-03-16T08:10:39.203Z,9.23
2018-03-16T08:13:06.796Z,9.22
2018-03-16T08:15:34.346Z,9.15
2018-03-16T08:18:01.894Z,8.94
2018-03-16T08:20:29.533Z,8.88
2018-03-16T08:22:57.082Z,8.69
2018-03-16T08:25:24.679Z,8.65
2018-03-16T08:27:52.415Z,8.51
2018-03-16T08:30:19.979Z,8.36
2018-03-16T08:32:47.526Z,8.36
2018-03-16T08:35:15.406Z,8.30
2018-03-16T08:37:42.957Z,8.36
2018-03-16T08:40:10.512Z,8.38
2018-03-16T08:42:38.258Z,8.37
2018-03-16T08:45:05.804Z,8.45
2018-03-16T08:47:33.360Z,8.41
2018-03-16T08:50:01.084Z,8.28
2018-03-16T08:52:28.658Z,8.27
2018-03-16T08:54:56.202Z,8.17
2018-03-16T08:57:23.795Z,8.14
2018-03-16T08:59:51.350Z,8.15
2018-03-16T09:02:18.902Z,8.18
2018-03-16T09:04:46.536Z,8.25
2018-03-16T09:07:14.100Z,8.39
2018-03-16T09:09:41.645Z,8.56
2018-03-16T09:12:09.237Z,8.68
2018-03-16T09:14:36.796Z,8.82
2018-03-16T09:17:04.373Z,8.93
2018-03-16T09:19:32.095Z,9.09
2018-03-16T09:21:59.633Z,9.09
2018-03-16T09:24:27.193Z,9.08
2018-03-16T09:26:54.913Z,9.01
2018-03-16T09:29:22.467Z,9.16
2018-03-16T09:31:50.018Z,9.32
2018-03-16T09:34:17.747Z,9.43
2018-03-16T09:36:45.298Z,9.40
2018-03-16T09:39:12.852Z,9.39
2018-03-16T09:41:40.529Z,9.65
2018-03-16T09:44:09.082Z,9.80
2018-03-16T09:46:36.635Z,9.90
2018-03-16T09:49:04.362Z,9.85
2018-03-16T09:51:31.913Z,10.05
2018-03-16T09:53:59.466Z,10.23
2018-03-16T09:56:27.067Z,10.31
2018-03-16T09:58:54.632Z,10.43
2018-03-16T10:01:22.179Z,10.58
2018-03-16T10:03:49.773Z,10.52
2018-03-16T10:06:17.340Z,10.62
2018-03-16T10:08:44.889Z,10.59
2018-03-16T10:11:12.642Z,10.42
2018-03-16T10:13:40.195Z,10.41
2018-03-16T10:16:07.780Z,10.59
2018-03-16T10:18:35.378Z,10.60
2018-03-16T10:21:02.934Z,10.57
2018-03-16T10:23:30.481Z,10.54
2018-03-16T10:25:58.078Z,10.62
2018-03-16T10:28:25.647Z,10.76
2018-03-16T10:30:53.208Z,10.81
2018-03-16T10:33:20.802Z,10.63
2018-03-16T10:35:48.351Z,10.82
2018-03-16T10:38:15.894Z,11.00
2018-03-16T10:40:43.506Z,11.32
2018-03-16T10:43:11.058Z,11.13
2018-03-16T10:45:38.614Z,10.93
2018-03-16T10:48:06.214Z,10.97
2018-03-16T10:50:33.767Z,10.92
2018-03-16T10:53:01.338Z,10.36
2018-03-16T10:55:29.247Z,10.06
2018-03-16T10:57:56.798Z,9.87
2018-03-16T11:00:29.802Z,9.99
2018-03-16T11:03:03.020Z,10.22
2018-03-16T11:05:30.613Z,10.45
2018-03-16T11:07:58.179Z,10.63
2018-03-16T11:10:25.766Z,10.85
2018-03-16T11:12:53.323Z,10.89
2018-03-16T11:15:21.795Z,11.02
2018-03-16T11:17:49.538Z,11.21
2018-03-16T11:20:17.090Z,11.31
2018-03-16T11:22:44.640Z,11.06
2018-03-16T11:25:12.214Z,10.98
2018-03-16T11:27:39.775Z,11.07
2018-03-16T11:30:07.317Z,10.76
2018-03-16T11:32:34.994Z,10.78
2018-03-16T11:35:02.540Z,11.19
2018-03-16T11:37:30.101Z,11.30
2018-03-16T11:39:57.852Z,11.16
2018-03-16T11:42:25.404Z,11.00
2018-03-16T11:44:52.955Z,10.94
2018-03-16T11:47:20.531Z,10.92
2018-03-16T11:49:48.082Z,11.00
2018-03-16T11:52:15.630Z,10.95
2018-03-16T11:54:43.218Z,11.00
2018-03-16T11:57:10.767Z,11.28
2018-03-16T11:59:38.377Z,11.56
2018-03-16T12:02:05.973Z,11.13
2018-03-16T12:04:33.527Z,11.16
2018-03-16T12:07:01.094Z,11.38
2018-03-16T12:09:28.822Z,11.21
2018-03-16T12:11:56.363Z,11.55
2018-03-16T12:14:23.905Z,11.90
2018-03-16T12:16:51.508Z,12.14
2018-03-16T12:19:19.059Z,12.19
2018-03-16T12:21:46.615Z,12.00
2018-03-16T12:24:14.235Z,11.92
2018-03-16T12:26:41.796Z,11.95
2018-03-16T12:29:09.338Z,12.04
2018-03-16T12:31:36.914Z,12.23
2018-03-16T12:34:04.523Z,12.39
2018-03-16T12:36:32.221Z,12.65
2018-03-16T12:38:59.759Z,12.69
2018-03-16T12:41:27.343Z,12.86
2018-03-16T12:43:54.922Z,12.69
2018-03-16T12:46:22.474Z,12.62
2018-03-16T12:48:50.031Z,12.49
2018-03-16T12:51:17.597Z,12.42
2018-03-16T12:53:45.142Z,12.39
2018-03-16T12:56:12.725Z,12.41
2018-03-16T12:58:40.458Z,12.40
2018-03-16T13:01:08.018Z,12.46
2018-03-16T13:03:35.572Z,12.36
2018-03-16T13:06:03.154Z,12.47
2018-03-16T13:08:30.709Z,12.63
2018-03-16T13:10:58.320Z,12.84
2018-03-16T13:13:25.866Z,12.91
2018-03-16T13:15:53.418Z,12.81
2018-03-16T13:18:21.086Z,12.70
2018-03-16T13:20:48.622Z,12.55
2018-03-16T13:23:16.172Z,12.54
2018-03-16T13:25:43.790Z,12.70
2018-03-16T13:28:11.334Z,12.86
2018-03-16T13:30:38.882Z,12.85
2018-03-16T13:33:06.815Z,12.58
2018-03-16T13:35:34.397Z,12.67
2018-03-16T13:38:01.956Z,12.69
2018-03-16T13:40:29.698Z,12.35
2018-03-16T13:42:57.239Z,12.53
2018-03-16T13:45:24.784Z,12.62
2018-03-16T13:47:53.272Z,12.72
2018-03-16T13:50:20.805Z,12.60
2018-03-16T13:52:48.370Z,12.29
2018-03-16T13:55:16.233Z,12.18
2018-03-16T13:57:43.787Z,12.00
2018-03-16T14:00:11.349Z,11.73
2018-03-16T14:02:38.928Z,11.86
2018-03-16T14:05:06.482Z,11.81
2018-03-16T14:07:34.044Z,12.01
2018-03-16T14:10:01.622Z,12.07
2018-03-16T14:12:29.188Z,11.95
2018-03-16T14:14:56.776Z,11.98
2018-03-16T14:17:24.373Z,12.15
2018-03-16T14:19:51.926Z,12.13
2018-03-16T14:22:19.499Z,12.22
2018-03-16T14:24:47.396Z,12.34
2018-03-16T14:27:14.943Z,12.16
2018-03-16T14:29:42.494Z,12.09
2018-03-16T14:32:10.069Z,12.19
2018-03-16T14:34:37.624Z,12.04
2018-03-16T14:37:05.175Z,12.02
2018-03-16T14:39:32.746Z,11.99
2018-03-16T14:42:00.291Z,12.10
2018-03-16T14:44:27.838Z,12.13
2018-03-16T14:46:55.712Z,12.22
2018-03-16T14:49:23.288Z,12.02
2018-03-16T14:51:50.850Z,12.15
2018-03-16T14:54:18.448Z,12.18
2018-03-16T14:56:45.993Z,12.21
2018-03-16T14:59:13.587Z,12.17
2018-03-16T15:01:41.284Z,12.00
2018-03-16T15:04:08.859Z,11.97
2018-03-16T15:06:36.403Z,11.81
2018-03-16T15:09:04.012Z,11.83
2018-03-16T15:11:31.569Z,11.87
2018-03-16T15:13:59.217Z,11.90
2018-03-16T15:16:26.762Z,11.99
2018-03-16T15:18:54.306Z,11.94
2018-03-16T15:21:22.187Z,11.89
2018-03-16T15:23:49.744Z,11.86
2018-03-16T15:26:17.279Z,11.81
2018-03-16T15:28:45.764Z,11.77
2018-03-16T15:31:13.311Z,11.65
2018-03-16T15:33:40.859Z,11.60
2018-03-16T15:36:08.741Z,11.60
2018-03-16T15:38:36.316Z,11.56
2018-03-16T15:41:03.871Z,11.57
2018-03-16T15:43:31.601Z,11.56
2018-03-16T15:45:59.157Z,11.54
2018-03-16T15:48:26.707Z,11.51
2018-03-16T15:50:54.290Z,11.39
2018-03-16T15:53:21.847Z,11.30
2018-03-16T15:55:49.399Z,11.20
2018-03-16T15:58:17.001Z,11.11
2018-03-16T16:00:44.561Z,11.05
2018-03-16T16:03:12.120Z,10.99
2018-03-16T16:05:39.728Z,10.92
2018-03-16T16:08:07.287Z,10.76
2018-03-16T16:10:34.836Z,10.67
2018-03-16T16:13:02.578Z,10.57
2018-03-16T16:15:30.159Z,10.44
2018-03-16T16:17:57.723Z,10.33
2018-03-16T16:20:25.458Z,10.24
2018-03-16T16:22:53.021Z,10.15
2018-03-16T16:25:20.577Z,10.05
2018-03-16T16:27:48.335Z,9.91
2018-03-16T16:30:15.927Z,9.86
2018-03-16T16:32:43.500Z,9.80
2018-03-16T16:35:11.189Z,9.68
2018-03-16T16:37:38.776Z,9.61
2018-03-16T16:40:06.378Z,9.54
2018-03-16T16:42:33.967Z,9.43
2018-03-16T16:45:01.526Z,9.37
2018-03-16T16:47:29.078Z,9.38
2018-03-16T16:49:56.873Z,9.34
2018-03-16T16:52:24.434Z,9.33
2018-03-16T16:54:52.069Z,9.31
2018-03-16T16:57:19.758Z,9.26
2018-03-16T16:59:47.332Z,9.24
2018-03-16T17:02:14.890Z,9.28
2018-03-16T17:04:42.467Z,9.23
2018-03-16T17:07:10.031Z,9.13
2018-03-16T17:09:37.577Z,9.13
2018-03-16T17:12:05.280Z,9.02
2018-03-16T17:14:32.822Z,8.88
2018-03-16T17:17:00.443Z,8.82
2018-03-16T17:19:27.998Z,8.73
2018-03-16T17:21:55.547Z,8.67
2018-03-16T17:24:23.103Z,8.65
2018-03-16T17:26:50.827Z,8.55
2018-03-16T17:29:18.380Z,8.50
2018-03-16T17:31:45.936Z,8.43
2018-03-16T17:34:13.963Z,8.44
2018-03-16T17:36:41.522Z,8.39
2018-03-16T17:39:09.066Z,8.37
2018-03-16T17:41:36.669Z,8.32
2018-03-16T17:44:04.232Z,8.34
2018-03-16T17:46:31.788Z,8.28
2018-03-16T17:48:59.530Z,8.31
2018-03-16T17:51:27.089Z,8.20
2018-03-16T17:53:54.682Z,8.15
2018-03-16T17:56:22.574Z,8.10
2018-03-16T17:58:50.120Z,8.01
2018-03-16T18:01:18.204Z,7.93
2018-03-16T18:03:46.107Z,7.87
2018-03-16T18:06:13.706Z,7.90
2018-03-16T18:08:41.305Z,7.88
2018-03-16T18:11:09.033Z,7.91
2018-03-16T18:13:36.628Z,7.91
2018-03-16T18:16:04.199Z,7.79
2018-03-16T18:18:32.129Z,7.85
2018-03-16T18:20:59.691Z,7.79
2018-03-16T18:23:27.247Z,7.70
2018-03-16T18:25:54.956Z,7.62
2018-03-16T18:28:22.519Z,7.52
2018-03-16T18:30:50.124Z,7.48
2018-03-16T18:33:17.730Z,7.43
2018-03-16T18:35:45.300Z,7.37
2018-03-16T18:38:12.870Z,7.36
2018-03-16T18:40:40.607Z,7.31
2018-03-16T18:43:08.169Z,7.33
2018-03-16T18:45:35.738Z,7.29
2018-03-16T18:48:03.434Z,7.24
2018-03-16T18:50:30.982Z,7.20
2018-03-16T18:52:58.562Z,7.17
2018-03-16T18:55:26.288Z,7.14
2018-03-16T18:57:53.855Z,7.12
2018-03-16T19:00:21.489Z,7.16
2018-03-16T19:02:49.184Z,7.18
2018-03-16T19:05:16.725Z,7.21
2018-03-16T19:07:44.265Z,7.28
2018-03-16T19:10:12.107Z,7.34
2018-03-16T19:12:39.658Z,7.43
2018-03-16T19:15:07.225Z,7.50
2018-03-16T19:17:34.960Z,7.54
2018-03-16T19:20:02.528Z,7.56
2018-03-16T19:22:30.092Z,7.58
2018-03-16T19:24:57.688Z,7.63
2018-03-16T19:27:25.244Z,7.60
2018-03-16T19:29:52.804Z,7.58
2018-03-16T19:32:20.697Z,7.76
2018-03-16T19:34:48.258Z,7.73
2018-03-16T19:37:15.810Z,7.70
2018-03-16T19:39:43.422Z,7.65
2018-03-16T19:42:10.971Z,7.62
2018-03-16T19:44:38.540Z,7.58
2018-03-16T19:47:06.119Z,7.60
2018-03-16T19:49:33.687Z,7.56
2018-03-16T19:52:01.251Z,7.50
2018-03-16T19:54:28.984Z,7.46
2018-03-16T19:56:56.536Z,7.45
2018-03-16T19:59:24.121Z,7.46
2018-03-16T20:01:51.727Z,7.46
2018-03-16T20:04:19.294Z,7.49
2018-03-16T20:06:46.846Z,7.65
2018-03-16T20:09:14.406Z,7.72
2018-03-16T20:11:41.962Z,7.70
2018-03-16T20:14:09.831Z,7.75
2018-03-16T20:16:37.414Z,7.77
2018-03-16T20:19:04.982Z,7.80
2018-03-16T20:21:32.560Z,7.77
2018-03-16T20:24:00.114Z,7.81
2018-03-16T20:26:27.707Z,7.76
2018-03-16T20:28:55.396Z,7.78
2018-03-16T20:31:23.081Z,7.80
2018-03-16T20:33:50.646Z,7.78
2018-03-16T20:36:18.229Z,7.77
2018-03-16T20:38:45.815Z,7.98
2018-03-16T20:41:13.364Z,8.02
2018-03-16T20:43:41.242Z,8.00
2018-03-16T20:46:08.819Z,7.93
2018-03-16T20:48:36.402Z,7.85
2018-03-16T20:51:04.092Z,7.80
2018-03-16T20:53:31.655Z,7.83
2018-03-16T20:55:59.227Z,7.81
2018-03-16T20:58:26.803Z,7.80
2018-03-16T21:00:54.380Z,7.81
2018-03-16T21:03:21.967Z,7.83
2018-03-16T21:05:49.723Z,7.78
2018-03-16T21:08:17.289Z,7.73
2018-03-16T21:10:44.867Z,7.87
2018-03-16T21:13:12.608Z,8.13
2018-03-16T21:15:40.232Z,8.18
2018-03-16T21:18:07.789Z,8.21
2018-03-16T21:20:35.414Z,8.19
2018-03-16T21:23:02.973Z,8.15
2018-03-16T21:25:30.543Z,8.05
2018-03-16T21:27:58.260Z,8.03
2018-03-16T21:30:25.801Z,7.99
2018-03-16T21:32:53.347Z,8.09
2018-03-16T21:35:21.259Z,8.08
2018-03-16T21:37:48.860Z,8.06
2018-03-16T21:40:16.409Z,8.20
2018-03-16T21:42:44.001Z,8.19
2018-03-16T21:45:11.566Z,8.14
2018-03-16T21:47:39.138Z,8.14
2018-03-16T21:50:06.743Z,8.18
2018-03-16T21:52:34.293Z,8.18
2018-03-16T21:55:01.865Z,8.18
2018-03-16T21:57:29.465Z,8.15
2018-03-16T21:59:57.027Z,8.15
2018-03-16T22:02:24.590Z,8.14
2018-03-16T22:04:52.306Z,8.26
2018-03-16T22:07:19.875Z,8.30
2018-03-16T22:09:47.431Z,8.32
2018-03-16T22:12:15.222Z,8.41
2018-03-16T22:14:42.777Z,8.42
2018-03-16T22:17:10.320Z,8.45
2018-03-16T22:19:37.914Z,8.41
2018-03-16T22:22:05.464Z,8.35
2018-03-16T22:24:33.011Z,8.36
2018-03-16T22:27:00.600Z,8.39
2018-03-16T22:29:28.169Z,8.34
2018-03-16T22:31:55.719Z,8.43
2018-03-16T22:34:23.300Z,8.53
2018-03-16T22:36:50.850Z,8.69
2018-03-16T22:39:18.407Z,8.79
2018-03-16T22:41:45.977Z,8.90
2018-03-16T22:44:13.532Z,9.17
2018-03-16T22:46:41.086Z,9.38
2018-03-16T22:49:08.676Z,9.61
2018-03-16T22:51:36.246Z,9.74
2018-03-16T22:54:03.798Z,9.71
2018-03-16T22:56:31.382Z,9.69
2018-03-16T22:58:58.946Z,9.76
2018-03-16T23:01:26.490Z,9.87
2018-03-16T23:03:54.062Z,9.79
2018-03-16T23:06:21.655Z,9.81
2018-03-16T23:08:49.202Z,9.70
2018-03-16T23:11:16.775Z,9.65
2018-03-16T23:13:44.326Z,9.65
2018-03-16T23:16:11.871Z,9.52
2018-03-16T23:18:39.608Z,9.43
2018-03-16T23:21:07.150Z,9.57
2018-03-16T23:23:34.696Z,9.58
2018-03-16T23:26:02.337Z,9.63
2018-03-16T23:28:29.907Z,9.64
2018-03-16T23:30:57.453Z,9.67
2018-03-16T23:33:25.243Z,9.64
2018-03-16T23:35:52.791Z,9.64
2018-03-16T23:38:20.332Z,9.64
2018-03-16T23:40:48.079Z,9.60
2018-03-16T23:43:15.625Z,9.74
2018-03-16T23:45:43.171Z,9.78
2018-03-16T23:48:10.739Z,9.76
2018-03-16T23:50:38.289Z,9.79
2018-03-16T23:53:05.830Z,9.86
2018-03-16T23:55:33.406Z,9.85
2018-03-16T23:58:00.953Z,9.84
